Port Imperial New Jersey — WBR3133 — position and weather

sailwx.info

Track history (hours):
 
Tides and Currents Weather Stations Pressure Air Temp Water Temp Dewpoint Dewpoint Depression Visibility Wind Speed Wind Dir Waves Ship Positions

Port Imperial New Jersey

Owner: PORT IMPERIAL FERRY CORP, WEEHAWKEN, NJ. More information available from US FCC via Universal Licensing System and Coast Guard Vessel Documentation Center.

Last reported at 2017-Jul-27 14:00 UTC. Time now 2017-Jul-27 14:55 UTC.
Position N 40°45' W 074°01'.

Length 31 m.

Type: Passenger vessel. MMSI: 366990550.

Date/timePositionNaut miles runAvg speedWind from/ knotsBaromVisibWave heightAir tempDewpointWater temp
2017-Jul-27 14:00N 40°45' W 074°01'0 0.1
2017-Jul-27 13:30N 40°46' W 074°01'0 0.1
2017-Jul-27 13:00N 40°45' W 074°01'0 0.1
2017-Jul-27 12:30N 40°46' W 074°01'0 0.0
2017-Jul-27 12:00N 40°46' W 074°01'0 0.0
2017-Jul-27 11:30N 40°46' W 074°01'1 1.6
2017-Jul-27 11:00N 40°46' W 074°00'  
2017-Jul-24 01:39N 40°46' W 074°01'0 0.0
2017-Jul-24 01:30N 40°46' W 074°01'0 0.0
2017-Jul-22 08:35N 40°46' W 074°01'0 0.1
2017-Jul-22 08:30N 40°46' W 074°01'0 0.0
2017-Jul-22 08:00N 40°46' W 074°01'0 0.0
2017-Jul-22 07:30N 40°46' W 074°01'0 0.0
2017-Jul-22 07:00N 40°46' W 074°01'0 0.0
2017-Jul-22 06:30N 40°46' W 074°01'0 0.0
2017-Jul-22 06:00N 40°46' W 074°01'0 0.0
2017-Jul-22 05:30N 40°46' W 074°01'0 0.0
2017-Jul-22 05:00N 40°46' W 074°01'0 0.0
2017-Jul-21 23:46N 40°46' W 074°01'2 8.9
2017-Jul-21 23:30N 40°44' W 074°02'1 1.9
2017-Jul-21 23:01N 40°43' W 074°02'1 2.7
2017-Jul-21 22:30N 40°42' W 074°00'2 4.3
2017-Jul-21 22:00N 40°44' W 074°02'1 1.7
2017-Jul-21 21:30N 40°43' W 074°01'1 2.7
2017-Jul-21 21:00N 40°42' W 074°00'2 4.3
2017-Jul-21 20:30N 40°44' W 074°02'1 1.6
2017-Jul-21 20:00N 40°43' W 074°01'1 1.6
2017-Jul-21 19:31N 40°44' W 074°02'1 2.2
2017-Jul-21 19:00N 40°43' W 074°01'1 2.0
2017-Jul-21 18:30N 40°44' W 074°01'1 2.4
2017-Jul-21 18:00N 40°43' W 074°01'4 7.0
2017-Jul-21 17:30N 40°46' W 074°01'0 0.1
2017-Jul-21 14:10N 40°47' W 074°01'1 3.6
2017-Jul-21 14:00N 40°46' W 074°01'4 7.5
2017-Jul-21 13:30N 40°42' W 074°00'1 2.5
2017-Jul-21 13:00N 40°43' W 074°02'1 2.2
2017-Jul-21 12:30N 40°44' W 074°02'2 4.4
2017-Jul-21 12:01N 40°42' W 074°00'2 3.4
2017-Jul-21 11:30N 40°44' W 074°01'1 1.1
2017-Jul-21 11:00N 40°44' W 074°02'2 4.5
2017-Jul-21 10:30N 40°46' W 074°01'0 0.0
2017-Jul-21 10:00N 40°46' W 074°01'0 0.0
2017-Jul-21 09:30N 40°46' W 074°01'0 0.0
2017-Jul-21 09:00N 40°46' W 074°01'0 0.0
2017-Jul-21 08:30N 40°46' W 074°01'0 0.0
2017-Jul-21 08:00N 40°46' W 074°01'0 0.0
2017-Jul-21 07:30N 40°46' W 074°01'0 0.0
2017-Jul-21 07:00N 40°46' W 074°01'0 0.0
2017-Jul-20 23:43N 40°46' W 074°01'211.2
2017-Jul-20 23:30N 40°44' W 074°02'1 1.8
2017-Jul-20 23:00N 40°43' W 074°01'1 2.7
2017-Jul-20 22:30N 40°42' W 074°00'2 4.2
2017-Jul-20 22:00N 40°44' W 074°02'1 1.6
2017-Jul-20 21:30N 40°43' W 074°01'1 2.8
2017-Jul-20 21:00N 40°42' W 074°00'2 4.3
2017-Jul-20 20:30N 40°44' W 074°02'1 1.6
2017-Jul-20 20:00N 40°43' W 074°01'1 1.6
2017-Jul-20 19:30N 40°44' W 074°02'1 2.2
2017-Jul-20 19:00N 40°43' W 074°02'1 1.7
2017-Jul-20 18:30N 40°44' W 074°01'1 1.3
2017-Jul-20 18:00N 40°43' W 074°01'2 4.6
2017-Jul-20 17:30N 40°45' W 074°01'4 8.5
2017-Jul-20 17:00N 40°41' W 074°02'4 8.9
2017-Jul-20 16:30N 40°46' W 074°00'5 9.5
2017-Jul-20 16:01N 40°41' W 074°02'5 9.2
2017-Jul-20 15:30N 40°46' W 074°00'0 0.9
2017-Jul-20 15:00N 40°46' W 074°01'0 0.5
2017-Jul-20 14:00N 40°45' W 074°01'3 6.8
2017-Jul-20 13:30N 40°42' W 074°00'1 2.1
2017-Jul-20 13:00N 40°43' W 074°01'1 2.9
2017-Jul-20 12:30N 40°44' W 074°02'2 4.4
2017-Jul-20 12:00N 40°42' W 074°00'1 2.6
2017-Jul-20 11:30N 40°43' W 074°01'1 2.1
2017-Jul-20 11:00N 40°44' W 074°02'2 4.6
2017-Jul-20 10:30N 40°46' W 074°01'0 0.0
2017-Jul-20 10:00N 40°46' W 074°01'0 0.0
2017-Jul-20 09:30N 40°46' W 074°01'0 0.0
2017-Jul-20 09:00N 40°46' W 074°01'0 0.0
2017-Jul-19 23:47N 40°46' W 074°01'2 8.0
2017-Jul-19 23:30N 40°44' W 074°02'1 2.2
2017-Jul-19 23:00N 40°43' W 074°01'1 2.3
2017-Jul-19 22:30N 40°42' W 074°00'2 4.3
2017-Jul-19 22:00N 40°44' W 074°02'1 1.8
2017-Jul-19 21:30N 40°43' W 074°01'1 2.6
2017-Jul-19 21:00N 40°42' W 074°00'2 4.3
2017-Jul-19 20:31N 40°44' W 074°02'1 1.6
2017-Jul-19 20:00N 40°43' W 074°01'1 1.7
2017-Jul-19 19:30N 40°44' W 074°02'1 2.2
2017-Jul-19 19:00N 40°43' W 074°01'1 2.1
2017-Jul-19 18:30N 40°44' W 074°02'1 1.8
2017-Jul-19 18:01N 40°43' W 074°01'2 2.0
2017-Jul-19 17:00N 40°41' W 074°02'4 8.8
2017-Jul-19 16:30N 40°45' W 074°01'4 8.3
2017-Jul-19 16:00N 40°42' W 074°02'4 8.6
2017-Jul-19 15:30N 40°46' W 074°00'0 0.1
2017-Jul-19 15:00N 40°46' W 074°00'0 0.0
2017-Jul-19 14:30N 40°46' W 074°00'0 1.0
2017-Jul-19 14:01N 40°46' W 074°01'4 7.6
2017-Jul-19 13:31N 40°42' W 074°00'1 1.9
2017-Jul-19 13:00N 40°43' W 074°01'2 3.0
2017-Jul-19 12:30N 40°44' W 074°02'2 4.4
2017-Jul-19 12:00N 40°42' W 074°00'1 2.8
2017-Jul-19 11:30N 40°43' W 074°01'1 1.7
2017-Jul-19 11:00N 40°44' W 074°02'2 0.2
2017-Jul-18 23:44N 40°46' W 074°01'2 9.9
2017-Jul-18 23:30N 40°44' W 074°02'1 2.0
2017-Jul-18 23:00N 40°43' W 074°01'1 2.5
2017-Jul-18 22:30N 40°42' W 074°00'2 4.2
2017-Jul-18 22:01N 40°44' W 074°01'1 1.8
2017-Jul-18 21:30N 40°43' W 074°01'1 2.5
2017-Jul-18 21:00N 40°42' W 074°00'2 4.3
2017-Jul-18 20:31N 40°44' W 074°02'0 0.9
2017-Jul-18 20:00N 40°44' W 074°01'0 0.9
2017-Jul-18 19:30N 40°44' W 074°02'1 1.9
2017-Jul-18 19:00N 40°43' W 074°01'1 1.9
2017-Jul-18 18:30N 40°44' W 074°02'1 1.7
2017-Jul-18 18:01N 40°43' W 074°01'3 5.0
2017-Jul-18 17:30N 40°46' W 074°00'4 8.5
2017-Jul-18 17:01N 40°42' W 074°02'4 8.4
2017-Jul-18 16:30N 40°46' W 074°00'5 9.2
2017-Jul-18 16:00N 40°41' W 074°02'5 9.1
2017-Jul-18 15:30N 40°46' W 074°00'0 0.1
2017-Jul-18 15:00N 40°46' W 074°00'1 0.6
2017-Jul-18 14:01N 40°45' W 074°01'3 6.4
2017-Jul-18 13:30N 40°42' W 074°00'1 1.8
2017-Jul-18 13:00N 40°42' W 074°01'2 4.0
2017-Jul-18 12:30N 40°44' W 074°02'2 4.4
2017-Jul-18 12:01N 40°42' W 074°00'1 2.8
2017-Jul-18 11:30N 40°43' W 074°02'1 1.8
2017-Jul-18 11:01N 40°44' W 074°02'2 4.6
2017-Jul-18 10:30N 40°46' W 074°01'0 0.0
2017-Jul-18 10:00N 40°46' W 074°01'0 0.0
2017-Jul-18 09:30N 40°46' W 074°01'0 0.0
2017-Jul-18 09:00N 40°46' W 074°01'0 0.0
2017-Jul-17 23:44N 40°46' W 074°01'210.5
2017-Jul-17 23:30N 40°44' W 074°02'1 2.2
2017-Jul-17 23:00N 40°43' W 074°01'1 2.5
2017-Jul-17 22:30N 40°42' W 074°00'2 4.3
2017-Jul-17 22:01N 40°44' W 074°02'1 2.2
2017-Jul-17 21:30N 40°43' W 074°01'1 2.4
2017-Jul-17 21:00N 40°42' W 074°00'2 4.3
2017-Jul-17 20:31N 40°44' W 074°02'1 1.6
2017-Jul-17 20:00N 40°43' W 074°01'1 1.6
2017-Jul-17 19:31N 40°44' W 074°02'1 1.8
2017-Jul-17 19:00N 40°43' W 074°01'1 1.8
2017-Jul-17 18:30N 40°44' W 074°02'1 2.1
2017-Jul-17 18:00N 40°43' W 074°01'3 6.5
2017-Jul-17 17:30N 40°46' W 074°01'0 0.0
2017-Jul-17 17:00N 40°46' W 074°01'1 1.5
2017-Jul-17 16:30N 40°46' W 074°00'5 9.7
2017-Jul-17 16:00N 40°41' W 074°03'5 9.4
2017-Jul-17 15:30N 40°46' W 074°00'0 0.1
2017-Jul-17 15:00N 40°46' W 074°00'0 0.1
2017-Jul-17 14:30N 40°46' W 074°00'0 1.0
2017-Jul-17 14:00N 40°46' W 074°01'  
Track history (hours):
 
Tides and Currents Weather Stations Pressure Air Temp Water Temp Dewpoint Dewpoint Depression Visibility Wind Speed Wind Dir Waves Ship Positions

Port Imperial New Jersey

Owner: PORT IMPERIAL FERRY CORP, WEEHAWKEN, NJ. More information available from US FCC via Universal Licensing System and Coast Guard Vessel Documentation Center.

Last reported at 2017-Jul-27 14:00 UTC. Time now 2017-Jul-27 14:55 UTC.
Position N 40°45' W 074°01'.

Length 31 m.

Type: Passenger vessel. MMSI: 366990550.

Date/timePositionNaut miles runAvg speedWind from/ knotsBaromVisibWave heightAir tempDewpointWater temp
2017-Jul-27 14:00N 40°45' W 074°01'0 0.1
2017-Jul-27 13:30N 40°46' W 074°01'0 0.1
2017-Jul-27 13:00N 40°45' W 074°01'0 0.1
2017-Jul-27 12:30N 40°46' W 074°01'0 0.0
2017-Jul-27 12:00N 40°46' W 074°01'0 0.0
2017-Jul-27 11:30N 40°46' W 074°01'1 1.6
2017-Jul-27 11:00N 40°46' W 074°00'  
2017-Jul-24 01:39N 40°46' W 074°01'0 0.0
2017-Jul-24 01:30N 40°46' W 074°01'0 0.0
2017-Jul-22 08:35N 40°46' W 074°01'0 0.1
2017-Jul-22 08:30N 40°46' W 074°01'0 0.0
2017-Jul-22 08:00N 40°46' W 074°01'0 0.0
2017-Jul-22 07:30N 40°46' W 074°01'0 0.0
2017-Jul-22 07:00N 40°46' W 074°01'0 0.0
2017-Jul-22 06:30N 40°46' W 074°01'0 0.0
2017-Jul-22 06:00N 40°46' W 074°01'0 0.0
2017-Jul-22 05:30N 40°46' W 074°01'0 0.0
2017-Jul-22 05:00N 40°46' W 074°01'0 0.0
2017-Jul-21 23:46N 40°46' W 074°01'2 8.9
2017-Jul-21 23:30N 40°44' W 074°02'1 1.9
2017-Jul-21 23:01N 40°43' W 074°02'1 2.7
2017-Jul-21 22:30N 40°42' W 074°00'2 4.3
2017-Jul-21 22:00N 40°44' W 074°02'1 1.7
2017-Jul-21 21:30N 40°43' W 074°01'1 2.7
2017-Jul-21 21:00N 40°42' W 074°00'2 4.3
2017-Jul-21 20:30N 40°44' W 074°02'1 1.6
2017-Jul-21 20:00N 40°43' W 074°01'1 1.6
2017-Jul-21 19:31N 40°44' W 074°02'1 2.2
2017-Jul-21 19:00N 40°43' W 074°01'1 2.0
2017-Jul-21 18:30N 40°44' W 074°01'1 2.4
2017-Jul-21 18:00N 40°43' W 074°01'4 7.0
2017-Jul-21 17:30N 40°46' W 074°01'0 0.1
2017-Jul-21 14:10N 40°47' W 074°01'1 3.6
2017-Jul-21 14:00N 40°46' W 074°01'4 7.5
2017-Jul-21 13:30N 40°42' W 074°00'1 2.5
2017-Jul-21 13:00N 40°43' W 074°02'1 2.2
2017-Jul-21 12:30N 40°44' W 074°02'2 4.4
2017-Jul-21 12:01N 40°42' W 074°00'2 3.4
2017-Jul-21 11:30N 40°44' W 074°01'1 1.1
2017-Jul-21 11:00N 40°44' W 074°02'2 4.5
2017-Jul-21 10:30N 40°46' W 074°01'0 0.0
2017-Jul-21 10:00N 40°46' W 074°01'0 0.0
2017-Jul-21 09:30N 40°46' W 074°01'0 0.0
2017-Jul-21 09:00N 40°46' W 074°01'0 0.0
2017-Jul-21 08:30N 40°46' W 074°01'0 0.0
2017-Jul-21 08:00N 40°46' W 074°01'0 0.0
2017-Jul-21 07:30N 40°46' W 074°01'0 0.0
2017-Jul-21 07:00N 40°46' W 074°01'0 0.0
2017-Jul-20 23:43N 40°46' W 074°01'211.2
2017-Jul-20 23:30N 40°44' W 074°02'1 1.8
2017-Jul-20 23:00N 40°43' W 074°01'1 2.7
2017-Jul-20 22:30N 40°42' W 074°00'2 4.2
2017-Jul-20 22:00N 40°44' W 074°02'1 1.6
2017-Jul-20 21:30N 40°43' W 074°01'1 2.8
2017-Jul-20 21:00N 40°42' W 074°00'2 4.3
2017-Jul-20 20:30N 40°44' W 074°02'1 1.6
2017-Jul-20 20:00N 40°43' W 074°01'1 1.6
2017-Jul-20 19:30N 40°44' W 074°02'1 2.2
2017-Jul-20 19:00N 40°43' W 074°02'1 1.7
2017-Jul-20 18:30N 40°44' W 074°01'1 1.3
2017-Jul-20 18:00N 40°43' W 074°01'2 4.6
2017-Jul-20 17:30N 40°45' W 074°01'4 8.5
2017-Jul-20 17:00N 40°41' W 074°02'4 8.9
2017-Jul-20 16:30N 40°46' W 074°00'5 9.5
2017-Jul-20 16:01N 40°41' W 074°02'5 9.2
2017-Jul-20 15:30N 40°46' W 074°00'0 0.9
2017-Jul-20 15:00N 40°46' W 074°01'0 0.5
2017-Jul-20 14:00N 40°45' W 074°01'3 6.8
2017-Jul-20 13:30N 40°42' W 074°00'1 2.1
2017-Jul-20 13:00N 40°43' W 074°01'1 2.9
2017-Jul-20 12:30N 40°44' W 074°02'2 4.4
2017-Jul-20 12:00N 40°42' W 074°00'1 2.6
2017-Jul-20 11:30N 40°43' W 074°01'1 2.1
2017-Jul-20 11:00N 40°44' W 074°02'2 4.6
2017-Jul-20 10:30N 40°46' W 074°01'0 0.0
2017-Jul-20 10:00N 40°46' W 074°01'0 0.0
2017-Jul-20 09:30N 40°46' W 074°01'0 0.0
2017-Jul-20 09:00N 40°46' W 074°01'0 0.0
2017-Jul-19 23:47N 40°46' W 074°01'2 8.0
2017-Jul-19 23:30N 40°44' W 074°02'1 2.2
2017-Jul-19 23:00N 40°43' W 074°01'1 2.3
2017-Jul-19 22:30N 40°42' W 074°00'2 4.3
2017-Jul-19 22:00N 40°44' W 074°02'1 1.8
2017-Jul-19 21:30N 40°43' W 074°01'1 2.6
2017-Jul-19 21:00N 40°42' W 074°00'2 4.3
2017-Jul-19 20:31N 40°44' W 074°02'1 1.6
2017-Jul-19 20:00N 40°43' W 074°01'1 1.7
2017-Jul-19 19:30N 40°44' W 074°02'1 2.2
2017-Jul-19 19:00N 40°43' W 074°01'1 2.1
2017-Jul-19 18:30N 40°44' W 074°02'1 1.8
2017-Jul-19 18:01N 40°43' W 074°01'2 2.0
2017-Jul-19 17:00N 40°41' W 074°02'4 8.8
2017-Jul-19 16:30N 40°45' W 074°01'4 8.3
2017-Jul-19 16:00N 40°42' W 074°02'4 8.6
2017-Jul-19 15:30N 40°46' W 074°00'0 0.1
2017-Jul-19 15:00N 40°46' W 074°00'0 0.0
2017-Jul-19 14:30N 40°46' W 074°00'0 1.0
2017-Jul-19 14:01N 40°46' W 074°01'4 7.6
2017-Jul-19 13:31N 40°42' W 074°00'1 1.9
2017-Jul-19 13:00N 40°43' W 074°01'2 3.0
2017-Jul-19 12:30N 40°44' W 074°02'2 4.4
2017-Jul-19 12:00N 40°42' W 074°00'1 2.8
2017-Jul-19 11:30N 40°43' W 074°01'1 1.7
2017-Jul-19 11:00N 40°44' W 074°02'2 0.2
2017-Jul-18 23:44N 40°46' W 074°01'2 9.9
2017-Jul-18 23:30N 40°44' W 074°02'1 2.0
2017-Jul-18 23:00N 40°43' W 074°01'1 2.5
2017-Jul-18 22:30N 40°42' W 074°00'2 4.2
2017-Jul-18 22:01N 40°44' W 074°01'1 1.8
2017-Jul-18 21:30N 40°43' W 074°01'1 2.5
2017-Jul-18 21:00N 40°42' W 074°00'2 4.3
2017-Jul-18 20:31N 40°44' W 074°02'0 0.9
2017-Jul-18 20:00N 40°44' W 074°01'0 0.9
2017-Jul-18 19:30N 40°44' W 074°02'1 1.9
2017-Jul-18 19:00N 40°43' W 074°01'1 1.9
2017-Jul-18 18:30N 40°44' W 074°02'1 1.7
2017-Jul-18 18:01N 40°43' W 074°01'3 5.0
2017-Jul-18 17:30N 40°46' W 074°00'4 8.5
2017-Jul-18 17:01N 40°42' W 074°02'4 8.4
2017-Jul-18 16:30N 40°46' W 074°00'5 9.2
2017-Jul-18 16:00N 40°41' W 074°02'5 9.1
2017-Jul-18 15:30N 40°46' W 074°00'0 0.1
2017-Jul-18 15:00N 40°46' W 074°00'1 0.6
2017-Jul-18 14:01N 40°45' W 074°01'3 6.4
2017-Jul-18 13:30N 40°42' W 074°00'1 1.8
2017-Jul-18 13:00N 40°42' W 074°01'2 4.0
2017-Jul-18 12:30N 40°44' W 074°02'2 4.4
2017-Jul-18 12:01N 40°42' W 074°00'1 2.8
2017-Jul-18 11:30N 40°43' W 074°02'1 1.8
2017-Jul-18 11:01N 40°44' W 074°02'2 4.6
2017-Jul-18 10:30N 40°46' W 074°01'0 0.0
2017-Jul-18 10:00N 40°46' W 074°01'0 0.0
2017-Jul-18 09:30N 40°46' W 074°01'0 0.0
2017-Jul-18 09:00N 40°46' W 074°01'0 0.0
2017-Jul-17 23:44N 40°46' W 074°01'210.5
2017-Jul-17 23:30N 40°44' W 074°02'1 2.2
2017-Jul-17 23:00N 40°43' W 074°01'1 2.5
2017-Jul-17 22:30N 40°42' W 074°00'2 4.3
2017-Jul-17 22:01N 40°44' W 074°02'1 2.2
2017-Jul-17 21:30N 40°43' W 074°01'1 2.4
2017-Jul-17 21:00N 40°42' W 074°00'2 4.3
2017-Jul-17 20:31N 40°44' W 074°02'1 1.6
2017-Jul-17 20:00N 40°43' W 074°01'1 1.6
2017-Jul-17 19:31N 40°44' W 074°02'1 1.8
2017-Jul-17 19:00N 40°43' W 074°01'1 1.8
2017-Jul-17 18:30N 40°44' W 074°02'1 2.1
2017-Jul-17 18:00N 40°43' W 074°01'3 6.5
2017-Jul-17 17:30N 40°46' W 074°01'0 0.0
2017-Jul-17 17:00N 40°46' W 074°01'1 1.5
2017-Jul-17 16:30N 40°46' W 074°00'5 9.7
2017-Jul-17 16:00N 40°41' W 074°03'5 9.4
2017-Jul-17 15:30N 40°46' W 074°00'0 0.1
2017-Jul-17 15:00N 40°46' W 074°00'0 0.1
2017-Jul-17 14:30N 40°46' W 074°00'0 1.0
2017-Jul-17 14:00N 40°46' W 074°01'  

Dump ship's entire track history